sensor_id;sensor_type;location;lat;lon;timestamp;P1;durP1;ratioP1;P2;durP2;ratioP2
64932;SDS011;51446;53.850;10.662;2023-02-28T00:02:12;16.00;;;8.70;;
64932;SDS011;51446;53.850;10.662;2023-02-28T00:04:37;13.73;;;7.20;;
64932;SDS011;51446;53.850;10.662;2023-02-28T00:07:03;18.83;;;8.13;;
64932;SDS011;51446;53.850;10.662;2023-02-28T00:09:28;14.23;;;8.27;;
64932;SDS011;51446;53.850;10.662;2023-02-28T00:11:53;13.83;;;7.40;;
64932;SDS011;51446;53.850;10.662;2023-02-28T00:14:18;12.10;;;7.43;;
64932;SDS011;51446;53.850;10.662;2023-02-28T00:16:44;11.80;;;6.97;;
64932;SDS011;51446;53.850;10.662;2023-02-28T00:19:09;10.90;;;7.33;;
64932;SDS011;51446;53.850;10.662;2023-02-28T00:21:34;9.73;;;6.50;;
64932;SDS011;51446;53.850;10.662;2023-02-28T00:24:00;11.70;;;6.93;;
64932;SDS011;51446;53.850;10.662;2023-02-28T00:26:25;12.20;;;6.50;;
64932;SDS011;51446;53.850;10.662;2023-02-28T00:28:51;11.97;;;7.10;;
64932;SDS011;51446;53.850;10.662;2023-02-28T00:31:17;11.90;;;6.65;;
64932;SDS011;51446;53.850;10.662;2023-02-28T00:33:42;12.60;;;7.47;;
64932;SDS011;51446;53.850;10.662;2023-02-28T00:36:09;15.50;;;8.10;;
64932;SDS011;51446;53.850;10.662;2023-02-28T00:38:36;10.60;;;7.45;;
64932;SDS011;51446;53.850;10.662;2023-02-28T00:41:02;10.98;;;7.07;;
64932;SDS011;51446;53.850;10.662;2023-02-28T00:43:29;11.50;;;7.28;;
64932;SDS011;51446;53.850;10.662;2023-02-28T00:45:55;15.73;;;8.63;;
64932;SDS011;51446;53.850;10.662;2023-02-28T00:48:20;12.97;;;7.70;;
64932;SDS011;51446;53.850;10.662;2023-02-28T00:50:48;15.70;;;7.77;;
64932;SDS011;51446;53.850;10.662;2023-02-28T00:53:14;11.38;;;6.70;;
64932;SDS011;51446;53.850;10.662;2023-02-28T00:55:39;11.70;;;6.80;;
64932;SDS011;51446;53.850;10.662;2023-02-28T00:58:05;9.87;;;6.60;;
64932;SDS011;51446;53.850;10.662;2023-02-28T01:00:30;9.97;;;6.20;;
64932;SDS011;51446;53.850;10.662;2023-02-28T01:02:55;9.48;;;6.47;;
64932;SDS011;51446;53.850;10.662;2023-02-28T01:05:21;13.80;;;7.03;;
64932;SDS011;51446;53.850;10.662;2023-02-28T01:07:46;14.33;;;7.27;;
64932;SDS011;51446;53.850;10.662;2023-02-28T01:10:11;13.37;;;8.07;;
64932;SDS011;51446;53.850;10.662;2023-02-28T01:12:37;13.27;;;8.50;;
64932;SDS011;51446;53.850;10.662;2023-02-28T01:15:02;12.60;;;7.77;;
64932;SDS011;51446;53.850;10.662;2023-02-28T01:17:28;12.00;;;8.00;;
64932;SDS011;51446;53.850;10.662;2023-02-28T01:19:54;12.37;;;7.73;;
64932;SDS011;51446;53.850;10.662;2023-02-28T01:22:20;10.67;;;6.20;;
64932;SDS011;51446;53.850;10.662;2023-02-28T01:24:45;13.40;;;6.80;;
64932;SDS011;51446;53.850;10.662;2023-02-28T01:27:10;10.70;;;5.60;;
64932;SDS011;51446;53.850;10.662;2023-02-28T01:29:36;10.13;;;5.85;;
64932;SDS011;51446;53.850;10.662;2023-02-28T01:32:01;8.85;;;5.75;;
64932;SDS011;51446;53.850;10.662;2023-02-28T01:34:26;9.45;;;6.03;;
64932;SDS011;51446;53.850;10.662;2023-02-28T01:36:51;8.40;;;5.95;;
64932;SDS011;51446;53.850;10.662;2023-02-28T01:39:17;8.13;;;5.60;;
64932;SDS011;51446;53.850;10.662;2023-02-28T01:41:42;6.53;;;5.00;;
64932;SDS011;51446;53.850;10.662;2023-02-28T01:47:11;7.78;;;5.20;;
64932;SDS011;51446;53.850;10.662;2023-02-28T01:49:36;6.73;;;5.00;;
64932;SDS011;51446;53.850;10.662;2023-02-28T01:52:02;6.90;;;4.60;;
64932;SDS011;51446;53.850;10.662;2023-02-28T01:54:29;7.70;;;4.95;;
64932;SDS011;51446;53.850;10.662;2023-02-28T02:00:11;11.57;;;4.90;;
64932;SDS011;51446;53.850;10.662;2023-02-28T02:02:21;7.85;;;4.47;;
64932;SDS011;51446;53.850;10.662;2023-02-28T02:07:32;11.02;;;6.85;;
64932;SDS011;51446;53.850;10.662;2023-02-28T02:10:11;10.50;;;6.90;;
64932;SDS011;51446;53.850;10.662;2023-02-28T02:15:45;8.98;;;5.03;;
64932;SDS011;51446;53.850;10.662;2023-02-28T02:35:49;9.70;;;5.00;;
64932;SDS011;51446;53.850;10.662;2023-02-28T02:38:27;7.13;;;5.07;;
64932;SDS011;51446;53.850;10.662;2023-02-28T02:43:36;8.88;;;5.03;;
64932;SDS011;51446;53.850;10.662;2023-02-28T02:46:10;5.55;;;4.50;;
64932;SDS011;51446;53.850;10.662;2023-02-28T02:48:41;8.80;;;4.28;;
64932;SDS011;51446;53.850;10.662;2023-02-28T02:51:11;5.83;;;4.60;;
64932;SDS011;51446;53.850;10.662;2023-02-28T02:53:42;8.52;;;4.95;;
64932;SDS011;51446;53.850;10.662;2023-02-28T02:56:28;8.07;;;4.90;;
64932;SDS011;51446;53.850;10.662;2023-02-28T02:58:58;6.50;;;4.82;;
64932;SDS011;51446;53.850;10.662;2023-02-28T03:01:28;6.78;;;5.35;;
64932;SDS011;51446;53.850;10.662;2023-02-28T03:03:56;9.70;;;5.60;;
64932;SDS011;51446;53.850;10.662;2023-02-28T03:06:25;8.05;;;5.60;;
64932;SDS011;51446;53.850;10.662;2023-02-28T03:08:51;8.38;;;5.63;;
64932;SDS011;51446;53.850;10.662;2023-02-28T03:11:16;9.97;;;5.40;;
64932;SDS011;51446;53.850;10.662;2023-02-28T03:16:45;8.60;;;5.47;;
64932;SDS011;51446;53.850;10.662;2023-02-28T03:19:33;8.60;;;5.88;;
64932;SDS011;51446;53.850;10.662;2023-02-28T03:22:09;9.52;;;5.65;;
64932;SDS011;51446;53.850;10.662;2023-02-28T03:27:10;8.67;;;6.00;;
64932;SDS011;51446;53.850;10.662;2023-02-28T03:29:43;7.72;;;5.28;;
64932;SDS011;51446;53.850;10.662;2023-02-28T03:32:25;15.95;;;6.00;;
64932;SDS011;51446;53.850;10.662;2023-02-28T03:34:56;12.85;;;5.82;;
64932;SDS011;51446;53.850;10.662;2023-02-28T03:37:29;9.18;;;5.80;;
64932;SDS011;51446;53.850;10.662;2023-02-28T03:40:01;8.37;;;5.70;;
64932;SDS011;51446;53.850;10.662;2023-02-28T03:42:34;8.32;;;5.30;;
64932;SDS011;51446;53.850;10.662;2023-02-28T03:45:09;7.40;;;5.68;;
64932;SDS011;51446;53.850;10.662;2023-02-28T03:47:46;7.95;;;5.00;;
64932;SDS011;51446;53.850;10.662;2023-02-28T03:53:11;9.77;;;5.63;;
64932;SDS011;51446;53.850;10.662;2023-02-28T03:55:39;11.45;;;5.57;;
64932;SDS011;51446;53.850;10.662;2023-02-28T03:58:19;8.02;;;5.35;;
64932;SDS011;51446;53.850;10.662;2023-02-28T04:00:52;9.40;;;5.97;;
64932;SDS011;51446;53.850;10.662;2023-02-28T04:03:22;12.95;;;5.70;;
64932;SDS011;51446;53.850;10.662;2023-02-28T04:05:52;10.70;;;5.57;;
64932;SDS011;51446;53.850;10.662;2023-02-28T04:08:19;8.05;;;5.10;;
64932;SDS011;51446;53.850;10.662;2023-02-28T04:10:45;11.57;;;5.63;;
64932;SDS011;51446;53.850;10.662;2023-02-28T04:13:16;14.63;;;6.47;;
64932;SDS011;51446;53.850;10.662;2023-02-28T04:15:42;9.87;;;6.17;;
64932;SDS011;51446;53.850;10.662;2023-02-28T04:18:07;10.13;;;5.90;;
64932;SDS011;51446;53.850;10.662;2023-02-28T04:20:33;8.27;;;5.82;;
64932;SDS011;51446;53.850;10.662;2023-02-28T04:22:58;10.77;;;6.10;;
64932;SDS011;51446;53.850;10.662;2023-02-28T04:25:23;11.13;;;6.53;;
64932;SDS011;51446;53.850;10.662;2023-02-28T04:27:48;9.40;;;5.90;;
64932;SDS011;51446;53.850;10.662;2023-02-28T04:30:14;8.73;;;5.77;;
64932;SDS011;51446;53.850;10.662;2023-02-28T04:32:39;11.37;;;6.63;;
64932;SDS011;51446;53.850;10.662;2023-02-28T04:35:04;9.40;;;6.10;;
64932;SDS011;51446;53.850;10.662;2023-02-28T04:37:30;10.50;;;5.63;;
64932;SDS011;51446;53.850;10.662;2023-02-28T04:40:00;12.80;;;5.90;;
64932;SDS011;51446;53.850;10.662;2023-02-28T04:42:26;8.68;;;5.63;;
64932;SDS011;51446;53.850;10.662;2023-02-28T04:44:51;9.10;;;5.90;;
64932;SDS011;51446;53.850;10.662;2023-02-28T04:47:16;8.77;;;5.80;;
64932;SDS011;51446;53.850;10.662;2023-02-28T04:49:42;10.63;;;5.27;;
64932;SDS011;51446;53.850;10.662;2023-02-28T04:52:07;9.70;;;5.63;;
64932;SDS011;51446;53.850;10.662;2023-02-28T04:54:34;11.60;;;5.32;;
64932;SDS011;51446;53.850;10.662;2023-02-28T04:57:00;9.33;;;5.70;;
64932;SDS011;51446;53.850;10.662;2023-02-28T04:59:26;8.67;;;5.70;;
64932;SDS011;51446;53.850;10.662;2023-02-28T05:01:51;10.50;;;5.55;;
64932;SDS011;51446;53.850;10.662;2023-02-28T05:04:17;7.60;;;5.27;;
64932;SDS011;51446;53.850;10.662;2023-02-28T05:06:42;9.13;;;5.30;;
64932;SDS011;51446;53.850;10.662;2023-02-28T05:09:08;7.30;;;5.37;;
64932;SDS011;51446;53.850;10.662;2023-02-28T05:11:33;11.13;;;5.70;;
64932;SDS011;51446;53.850;10.662;2023-02-28T05:14:00;7.43;;;5.85;;
64932;SDS011;51446;53.850;10.662;2023-02-28T05:16:26;10.70;;;6.10;;
64932;SDS011;51446;53.850;10.662;2023-02-28T05:18:52;9.47;;;6.67;;
64932;SDS011;51446;53.850;10.662;2023-02-28T05:21:23;10.98;;;6.55;;
64932;SDS011;51446;53.850;10.662;2023-02-28T05:23:57;8.73;;;6.53;;
64932;SDS011;51446;53.850;10.662;2023-02-28T05:26:24;11.83;;;6.60;;
64932;SDS011;51446;53.850;10.662;2023-02-28T05:28:51;9.90;;;6.60;;
64932;SDS011;51446;53.850;10.662;2023-02-28T05:31:16;14.97;;;8.73;;
64932;SDS011;51446;53.850;10.662;2023-02-28T05:33:41;11.60;;;7.97;;
64932;SDS011;51446;53.850;10.662;2023-02-28T05:36:06;9.83;;;7.17;;
64932;SDS011;51446;53.850;10.662;2023-02-28T05:38:32;11.33;;;7.00;;
64932;SDS011;51446;53.850;10.662;2023-02-28T05:40:57;9.15;;;6.15;;
64932;SDS011;51446;53.850;10.662;2023-02-28T05:43:23;8.93;;;5.80;;
64932;SDS011;51446;53.850;10.662;2023-02-28T05:45:48;9.60;;;6.00;;
64932;SDS011;51446;53.850;10.662;2023-02-28T05:48:13;8.57;;;6.23;;
64932;SDS011;51446;53.850;10.662;2023-02-28T05:50:39;9.33;;;6.37;;
64932;SDS011;51446;53.850;10.662;2023-02-28T05:53:04;9.50;;;6.07;;
64932;SDS011;51446;53.850;10.662;2023-02-28T05:55:29;9.40;;;6.35;;
64932;SDS011;51446;53.850;10.662;2023-02-28T05:57:55;8.32;;;6.13;;
64932;SDS011;51446;53.850;10.662;2023-02-28T06:00:20;8.40;;;6.13;;
64932;SDS011;51446;53.850;10.662;2023-02-28T06:02:46;9.30;;;6.22;;
64932;SDS011;51446;53.850;10.662;2023-02-28T06:05:13;8.38;;;5.57;;
64932;SDS011;51446;53.850;10.662;2023-02-28T06:07:39;9.32;;;5.97;;
64932;SDS011;51446;53.850;10.662;2023-02-28T06:10:05;8.90;;;5.47;;
64932;SDS011;51446;53.850;10.662;2023-02-28T06:12:30;8.00;;;5.63;;
64932;SDS011;51446;53.850;10.662;2023-02-28T06:14:56;9.23;;;6.43;;
64932;SDS011;51446;53.850;10.662;2023-02-28T06:17:21;6.20;;;5.60;;
64932;SDS011;51446;53.850;10.662;2023-02-28T06:19:46;7.90;;;5.97;;
64932;SDS011;51446;53.850;10.662;2023-02-28T06:22:12;10.05;;;6.22;;
64932;SDS011;51446;53.850;10.662;2023-02-28T06:24:38;8.70;;;5.57;;
64932;SDS011;51446;53.850;10.662;2023-02-28T06:27:03;10.17;;;6.13;;
64932;SDS011;51446;53.850;10.662;2023-02-28T06:29:30;6.50;;;5.55;;
64932;SDS011;51446;53.850;10.662;2023-02-28T06:31:56;9.20;;;5.65;;
64932;SDS011;51446;53.850;10.662;2023-02-28T06:34:21;7.73;;;5.50;;
64932;SDS011;51446;53.850;10.662;2023-02-28T06:36:48;8.43;;;5.63;;
64932;SDS011;51446;53.850;10.662;2023-02-28T06:39:15;9.93;;;5.45;;
64932;SDS011;51446;53.850;10.662;2023-02-28T06:41:41;11.10;;;5.37;;
64932;SDS011;51446;53.850;10.662;2023-02-28T06:44:12;9.03;;;5.27;;
64932;SDS011;51446;53.850;10.662;2023-02-28T06:46:41;7.50;;;5.18;;
64932;SDS011;51446;53.850;10.662;2023-02-28T06:49:07;11.13;;;5.47;;
64932;SDS011;51446;53.850;10.662;2023-02-28T06:51:36;8.07;;;5.07;;
64932;SDS011;51446;53.850;10.662;2023-02-28T06:54:03;9.30;;;5.00;;
64932;SDS011;51446;53.850;10.662;2023-02-28T06:56:28;9.23;;;4.80;;
64932;SDS011;51446;53.850;10.662;2023-02-28T06:58:53;7.67;;;4.00;;
64932;SDS011;51446;53.850;10.662;2023-02-28T07:01:19;9.53;;;3.93;;
64932;SDS011;51446;53.850;10.662;2023-02-28T07:03:45;7.33;;;4.53;;
64932;SDS011;51446;53.850;10.662;2023-02-28T07:06:11;5.60;;;4.07;;
64932;SDS011;51446;53.850;10.662;2023-02-28T07:08:37;8.20;;;4.10;;
64932;SDS011;51446;53.850;10.662;2023-02-28T07:11:02;8.63;;;4.00;;
64932;SDS011;51446;53.850;10.662;2023-02-28T07:13:28;6.70;;;3.60;;
64932;SDS011;51446;53.850;10.662;2023-02-28T07:15:57;8.80;;;3.90;;
64932;SDS011;51446;53.850;10.662;2023-02-28T07:18:24;8.63;;;3.65;;
64932;SDS011;51446;53.850;10.662;2023-02-28T07:20:50;8.02;;;3.60;;
64932;SDS011;51446;53.850;10.662;2023-02-28T07:23:15;7.90;;;3.60;;
64932;SDS011;51446;53.850;10.662;2023-02-28T07:25:41;7.70;;;3.33;;
64932;SDS011;51446;53.850;10.662;2023-02-28T07:28:06;7.10;;;3.07;;
64932;SDS011;51446;53.850;10.662;2023-02-28T07:30:31;6.30;;;3.50;;
64932;SDS011;51446;53.850;10.662;2023-02-28T07:32:57;4.75;;;3.13;;
64932;SDS011;51446;53.850;10.662;2023-02-28T07:35:22;5.00;;;2.90;;
64932;SDS011;51446;53.850;10.662;2023-02-28T07:37:47;5.57;;;2.90;;
64932;SDS011;51446;53.850;10.662;2023-02-28T07:40:13;5.73;;;3.27;;
64932;SDS011;51446;53.850;10.662;2023-02-28T07:42:39;5.90;;;2.97;;
64932;SDS011;51446;53.850;10.662;2023-02-28T07:45:05;8.23;;;3.10;;
64932;SDS011;51446;53.850;10.662;2023-02-28T07:47:32;6.40;;;3.07;;
64932;SDS011;51446;53.850;10.662;2023-02-28T07:49:57;7.30;;;2.90;;
64932;SDS011;51446;53.850;10.662;2023-02-28T07:52:23;5.93;;;2.80;;
64932;SDS011;51446;53.850;10.662;2023-02-28T07:54:49;8.27;;;3.47;;
64932;SDS011;51446;53.850;10.662;2023-02-28T07:57:14;5.00;;;3.17;;
64932;SDS011;51446;53.850;10.662;2023-02-28T07:59:40;6.75;;;3.35;;
64932;SDS011;51446;53.850;10.662;2023-02-28T08:02:06;5.53;;;2.73;;
64932;SDS011;51446;53.850;10.662;2023-02-28T08:04:31;5.97;;;2.67;;
64932;SDS011;51446;53.850;10.662;2023-02-28T08:06:57;6.18;;;2.83;;
64932;SDS011;51446;53.850;10.662;2023-02-28T08:09:22;6.87;;;2.60;;
64932;SDS011;51446;53.850;10.662;2023-02-28T08:11:47;6.87;;;2.70;;
64932;SDS011;51446;53.850;10.662;2023-02-28T08:14:13;6.50;;;3.07;;
64932;SDS011;51446;53.850;10.662;2023-02-28T08:16:38;5.60;;;2.73;;
64932;SDS011;51446;53.850;10.662;2023-02-28T08:19:04;5.28;;;2.80;;
64932;SDS011;51446;53.850;10.662;2023-02-28T08:21:29;6.30;;;2.97;;
64932;SDS011;51446;53.850;10.662;2023-02-28T08:23:54;4.83;;;2.40;;
64932;SDS011;51446;53.850;10.662;2023-02-28T08:26:21;6.65;;;2.67;;
64932;SDS011;51446;53.850;10.662;2023-02-28T08:28:47;5.40;;;2.30;;
64932;SDS011;51446;53.850;10.662;2023-02-28T08:31:13;4.93;;;2.40;;
64932;SDS011;51446;53.850;10.662;2023-02-28T08:33:40;4.45;;;2.40;;
64932;SDS011;51446;53.850;10.662;2023-02-28T08:36:07;6.07;;;2.80;;
64932;SDS011;51446;53.850;10.662;2023-02-28T08:38:33;6.82;;;2.55;;
64932;SDS011;51446;53.850;10.662;2023-02-28T08:40:59;8.40;;;2.60;;
64932;SDS011;51446;53.850;10.662;2023-02-28T08:43:27;4.82;;;3.05;;
64932;SDS011;51446;53.850;10.662;2023-02-28T08:45:53;6.72;;;2.53;;
64932;SDS011;51446;53.850;10.662;2023-02-28T08:48:19;6.25;;;2.67;;
64932;SDS011;51446;53.850;10.662;2023-02-28T08:50:45;5.07;;;2.20;;
64932;SDS011;51446;53.850;10.662;2023-02-28T08:53:19;4.97;;;2.60;;
64932;SDS011;51446;53.850;10.662;2023-02-28T08:55:44;4.83;;;2.37;;
64932;SDS011;51446;53.850;10.662;2023-02-28T08:58:10;4.13;;;2.50;;
64932;SDS011;51446;53.850;10.662;2023-02-28T09:00:35;6.10;;;2.47;;
64932;SDS011;51446;53.850;10.662;2023-02-28T09:03:01;5.45;;;2.72;;
64932;SDS011;51446;53.850;10.662;2023-02-28T09:05:26;5.13;;;2.77;;
64932;SDS011;51446;53.850;10.662;2023-02-28T09:07:54;6.40;;;2.60;;
64932;SDS011;51446;53.850;10.662;2023-02-28T09:10:19;8.67;;;3.17;;
64932;SDS011;51446;53.850;10.662;2023-02-28T09:12:44;5.90;;;2.60;;
64932;SDS011;51446;53.850;10.662;2023-02-28T09:15:11;7.60;;;2.90;;
64932;SDS011;51446;53.850;10.662;2023-02-28T09:17:37;5.60;;;2.83;;
64932;SDS011;51446;53.850;10.662;2023-02-28T09:20:02;4.63;;;2.93;;
64932;SDS011;51446;53.850;10.662;2023-02-28T09:22:28;5.43;;;2.97;;
64932;SDS011;51446;53.850;10.662;2023-02-28T09:24:53;7.07;;;2.90;;
64932;SDS011;51446;53.850;10.662;2023-02-28T09:27:18;4.63;;;2.77;;
64932;SDS011;51446;53.850;10.662;2023-02-28T09:29:44;8.97;;;3.10;;
64932;SDS011;51446;53.850;10.662;2023-02-28T09:32:09;7.67;;;2.87;;
64932;SDS011;51446;53.850;10.662;2023-02-28T09:34:34;6.00;;;2.90;;
64932;SDS011;51446;53.850;10.662;2023-02-28T09:37:01;4.68;;;2.70;;
64932;SDS011;51446;53.850;10.662;2023-02-28T09:39:27;8.97;;;2.90;;
64932;SDS011;51446;53.850;10.662;2023-02-28T09:41:53;7.28;;;2.97;;
64932;SDS011;51446;53.850;10.662;2023-02-28T09:44:28;6.60;;;2.35;;
64932;SDS011;51446;53.850;10.662;2023-02-28T09:46:59;4.53;;;2.10;;
64932;SDS011;51446;53.850;10.662;2023-02-28T09:49:37;4.82;;;2.20;;
64932;SDS011;51446;53.850;10.662;2023-02-28T09:52:10;6.35;;;2.53;;
64932;SDS011;51446;53.850;10.662;2023-02-28T09:54:41;5.82;;;1.90;;
64932;SDS011;51446;53.850;10.662;2023-02-28T09:57:13;5.17;;;2.33;;
64932;SDS011;51446;53.850;10.662;2023-02-28T10:05:19;3.60;;;1.80;;
64932;SDS011;51446;53.850;10.662;2023-02-28T10:13:15;4.13;;;1.52;;
64932;SDS011;51446;53.850;10.662;2023-02-28T10:15:47;3.45;;;1.50;;
64932;SDS011;51446;53.850;10.662;2023-02-28T10:18:19;3.43;;;1.17;;
64932;SDS011;51446;53.850;10.662;2023-02-28T10:20:49;3.63;;;1.50;;
64932;SDS011;51446;53.850;10.662;2023-02-28T10:23:20;3.25;;;1.38;;
64932;SDS011;51446;53.850;10.662;2023-02-28T10:26:12;4.50;;;1.70;;
64932;SDS011;51446;53.850;10.662;2023-02-28T10:28:38;3.03;;;1.60;;
64932;SDS011;51446;53.850;10.662;2023-02-28T10:31:04;3.10;;;1.50;;
64932;SDS011;51446;53.850;10.662;2023-02-28T10:33:31;2.83;;;1.20;;
64932;SDS011;51446;53.850;10.662;2023-02-28T10:35:59;2.20;;;1.10;;
64932;SDS011;51446;53.850;10.662;2023-02-28T10:38:26;2.87;;;1.20;;
64932;SDS011;51446;53.850;10.662;2023-02-28T10:41:54;3.90;;;1.35;;
64932;SDS011;51446;53.850;10.662;2023-02-28T10:43:53;2.60;;;1.30;;
64932;SDS011;51446;53.850;10.662;2023-02-28T10:46:39;4.65;;;1.48;;
64932;SDS011;51446;53.850;10.662;2023-02-28T10:49:07;3.58;;;1.48;;
64932;SDS011;51446;53.850;10.662;2023-02-28T10:51:39;2.47;;;1.10;;
64932;SDS011;51446;53.850;10.662;2023-02-28T10:54:06;3.55;;;1.30;;
64932;SDS011;51446;53.850;10.662;2023-02-28T10:56:40;2.95;;;1.52;;
64932;SDS011;51446;53.850;10.662;2023-02-28T11:01:56;4.47;;;1.70;;
64932;SDS011;51446;53.850;10.662;2023-02-28T11:06:47;4.00;;;1.40;;
64932;SDS011;51446;53.850;10.662;2023-02-28T11:09:39;3.35;;;1.20;;
64932;SDS011;51446;53.850;10.662;2023-02-28T11:12:06;3.67;;;1.60;;
64932;SDS011;51446;53.850;10.662;2023-02-28T11:14:47;4.13;;;1.40;;
64932;SDS011;51446;53.850;10.662;2023-02-28T11:17:26;1.98;;;1.20;;
64932;SDS011;51446;53.850;10.662;2023-02-28T11:20:00;3.38;;;1.30;;
64932;SDS011;51446;53.850;10.662;2023-02-28T11:22:29;4.68;;;1.60;;
64932;SDS011;51446;53.850;10.662;2023-02-28T11:25:02;3.20;;;1.63;;
64932;SDS011;51446;53.850;10.662;2023-02-28T11:29:59;3.97;;;1.27;;
64932;SDS011;51446;53.850;10.662;2023-02-28T11:32:26;3.30;;;1.70;;
64932;SDS011;51446;53.850;10.662;2023-02-28T11:37:39;2.58;;;1.48;;
64932;SDS011;51446;53.850;10.662;2023-02-28T11:46:04;4.80;;;1.60;;
64932;SDS011;51446;53.850;10.662;2023-02-28T11:51:33;4.18;;;1.58;;
64932;SDS011;51446;53.850;10.662;2023-02-28T12:00:19;3.90;;;1.30;;
64932;SDS011;51446;53.850;10.662;2023-02-28T12:02:56;2.78;;;1.38;;
64932;SDS011;51446;53.850;10.662;2023-02-28T12:05:29;4.05;;;1.63;;
64932;SDS011;51446;53.850;10.662;2023-02-28T12:17:24;3.83;;;1.60;;
64932;SDS011;51446;53.850;10.662;2023-02-28T12:22:22;3.00;;;1.50;;
64932;SDS011;51446;53.850;10.662;2023-02-28T12:27:43;3.10;;;1.50;;
64932;SDS011;51446;53.850;10.662;2023-02-28T12:35:59;3.58;;;1.58;;
64932;SDS011;51446;53.850;10.662;2023-02-28T12:41:13;5.75;;;1.45;;
64932;SDS011;51446;53.850;10.662;2023-02-28T12:43:48;2.70;;;1.48;;
64932;SDS011;51446;53.850;10.662;2023-02-28T12:46:21;3.97;;;1.50;;
64932;SDS011;51446;53.850;10.662;2023-02-28T12:48:55;5.15;;;1.60;;
64932;SDS011;51446;53.850;10.662;2023-02-28T12:51:22;3.47;;;1.63;;
64932;SDS011;51446;53.850;10.662;2023-02-28T12:54:02;3.22;;;1.50;;
64932;SDS011;51446;53.850;10.662;2023-02-28T12:56:38;4.05;;;1.90;;
64932;SDS011;51446;53.850;10.662;2023-02-28T12:59:20;5.60;;;1.85;;
64932;SDS011;51446;53.850;10.662;2023-02-28T13:02:02;4.53;;;2.10;;
64932;SDS011;51446;53.850;10.662;2023-02-28T13:05:00;9.10;;;2.65;;
64932;SDS011;51446;53.850;10.662;2023-02-28T13:10:42;5.72;;;2.28;;
64932;SDS011;51446;53.850;10.662;2023-02-28T13:13:16;3.47;;;2.05;;
64932;SDS011;51446;53.850;10.662;2023-02-28T13:18:42;2.90;;;1.92;;
64932;SDS011;51446;53.850;10.662;2023-02-28T13:21:22;4.72;;;2.10;;
64932;SDS011;51446;53.850;10.662;2023-02-28T13:26:21;2.20;;;2.00;;
64932;SDS011;51446;53.850;10.662;2023-02-28T13:34:27;4.93;;;2.38;;
64932;SDS011;51446;53.850;10.662;2023-02-28T13:37:17;4.10;;;2.40;;
64932;SDS011;51446;53.850;10.662;2023-02-28T13:45:20;4.45;;;2.58;;
64932;SDS011;51446;53.850;10.662;2023-02-28T13:47:53;7.53;;;2.72;;
64932;SDS011;51446;53.850;10.662;2023-02-28T13:58:12;5.25;;;2.50;;
64932;SDS011;51446;53.850;10.662;2023-02-28T14:07:23;4.90;;;2.70;;
64932;SDS011;51446;53.850;10.662;2023-02-28T14:10:20;6.78;;;2.70;;
64932;SDS011;51446;53.850;10.662;2023-02-28T14:15:46;6.50;;;2.60;;
64932;SDS011;51446;53.850;10.662;2023-02-28T14:18:15;3.63;;;2.50;;
64932;SDS011;51446;53.850;10.662;2023-02-28T14:20:45;4.78;;;2.70;;
64932;SDS011;51446;53.850;10.662;2023-02-28T14:23:26;3.92;;;2.60;;
64932;SDS011;51446;53.850;10.662;2023-02-28T14:26:18;3.90;;;2.28;;
64932;SDS011;51446;53.850;10.662;2023-02-28T14:31:35;5.53;;;2.75;;
64932;SDS011;51446;53.850;10.662;2023-02-28T14:34:17;4.95;;;2.15;;
64932;SDS011;51446;53.850;10.662;2023-02-28T14:36:52;4.78;;;2.30;;
64932;SDS011;51446;53.850;10.662;2023-02-28T14:39:20;4.22;;;2.30;;
64932;SDS011;51446;53.850;10.662;2023-02-28T14:41:47;5.63;;;2.40;;
64932;SDS011;51446;53.850;10.662;2023-02-28T14:44:17;9.00;;;2.57;;
64932;SDS011;51446;53.850;10.662;2023-02-28T14:46:42;8.18;;;2.47;;
64932;SDS011;51446;53.850;10.662;2023-02-28T14:49:12;17.65;;;2.60;;
64932;SDS011;51446;53.850;10.662;2023-02-28T14:52:01;3.15;;;2.22;;
64932;SDS011;51446;53.850;10.662;2023-02-28T14:54:30;3.92;;;2.30;;
64932;SDS011;51446;53.850;10.662;2023-02-28T14:56:55;3.67;;;1.90;;
64932;SDS011;51446;53.850;10.662;2023-02-28T14:59:28;3.47;;;1.80;;
64932;SDS011;51446;53.850;10.662;2023-02-28T15:04:51;2.95;;;2.20;;
64932;SDS011;51446;53.850;10.662;2023-02-28T15:07:21;3.97;;;1.88;;
64932;SDS011;51446;53.850;10.662;2023-02-28T15:10:15;2.08;;;1.75;;
64932;SDS011;51446;53.850;10.662;2023-02-28T15:12:51;2.83;;;1.97;;
64932;SDS011;51446;53.850;10.662;2023-02-28T15:15:21;3.63;;;1.90;;
64932;SDS011;51446;53.850;10.662;2023-02-28T15:17:50;2.58;;;1.90;;
64932;SDS011;51446;53.850;10.662;2023-02-28T15:20:19;2.55;;;1.80;;
64932;SDS011;51446;53.850;10.662;2023-02-28T15:22:44;2.33;;;1.87;;
64932;SDS011;51446;53.850;10.662;2023-02-28T15:25:13;3.15;;;1.83;;
64932;SDS011;51446;53.850;10.662;2023-02-28T15:27:50;5.60;;;2.10;;
64932;SDS011;51446;53.850;10.662;2023-02-28T15:30:21;5.88;;;2.22;;
64932;SDS011;51446;53.850;10.662;2023-02-28T15:35:31;3.27;;;2.00;;
64932;SDS011;51446;53.850;10.662;2023-02-28T15:38:00;3.00;;;1.92;;
64932;SDS011;51446;53.850;10.662;2023-02-28T15:40:41;3.45;;;2.30;;
64932;SDS011;51446;53.850;10.662;2023-02-28T15:43:14;3.65;;;2.20;;
64932;SDS011;51446;53.850;10.662;2023-02-28T15:46:24;3.05;;;2.03;;
64932;SDS011;51446;53.850;10.662;2023-02-28T15:51:07;4.20;;;2.15;;
64932;SDS011;51446;53.850;10.662;2023-02-28T15:53:37;7.00;;;2.60;;
64932;SDS011;51446;53.850;10.662;2023-02-28T15:56:32;6.50;;;2.20;;
64932;SDS011;51446;53.850;10.662;2023-02-28T15:59:04;3.55;;;2.30;;
64932;SDS011;51446;53.850;10.662;2023-02-28T16:01:35;4.50;;;2.10;;
64932;SDS011;51446;53.850;10.662;2023-02-28T16:04:04;5.72;;;2.50;;
64932;SDS011;51446;53.850;10.662;2023-02-28T16:06:41;3.40;;;2.70;;
64932;SDS011;51446;53.850;10.662;2023-02-28T16:09:12;3.60;;;2.50;;
64932;SDS011;51446;53.850;10.662;2023-02-28T16:11:48;4.43;;;2.83;;
64932;SDS011;51446;53.850;10.662;2023-02-28T16:14:16;3.37;;;2.60;;
64932;SDS011;51446;53.850;10.662;2023-02-28T16:16:46;4.18;;;2.80;;
64932;SDS011;51446;53.850;10.662;2023-02-28T16:19:13;3.33;;;2.78;;
64932;SDS011;51446;53.850;10.662;2023-02-28T16:21:38;4.60;;;2.60;;
64932;SDS011;51446;53.850;10.662;2023-02-28T16:24:04;4.10;;;2.63;;
64932;SDS011;51446;53.850;10.662;2023-02-28T16:26:29;3.22;;;2.83;;
64932;SDS011;51446;53.850;10.662;2023-02-28T16:28:54;4.30;;;3.03;;
64932;SDS011;51446;53.850;10.662;2023-02-28T16:31:20;4.03;;;2.87;;
64932;SDS011;51446;53.850;10.662;2023-02-28T16:33:45;4.00;;;2.67;;
64932;SDS011;51446;53.850;10.662;2023-02-28T16:36:12;8.10;;;3.03;;
64932;SDS011;51446;53.850;10.662;2023-02-28T16:38:39;4.63;;;3.03;;
64932;SDS011;51446;53.850;10.662;2023-02-28T16:41:05;3.47;;;2.63;;
64932;SDS011;51446;53.850;10.662;2023-02-28T16:43:30;4.45;;;2.63;;
64932;SDS011;51446;53.850;10.662;2023-02-28T16:45:56;3.73;;;2.87;;
64932;SDS011;51446;53.850;10.662;2023-02-28T16:48:23;5.57;;;3.10;;
64932;SDS011;51446;53.850;10.662;2023-02-28T16:50:49;5.93;;;3.45;;
64932;SDS011;51446;53.850;10.662;2023-02-28T16:53:14;5.33;;;3.57;;
64932;SDS011;51446;53.850;10.662;2023-02-28T16:55:40;7.20;;;2.90;;
64932;SDS011;51446;53.850;10.662;2023-02-28T16:58:05;7.80;;;3.73;;
64932;SDS011;51446;53.850;10.662;2023-02-28T17:00:31;4.67;;;3.30;;
64932;SDS011;51446;53.850;10.662;2023-02-28T17:02:58;12.18;;;3.80;;
64932;SDS011;51446;53.850;10.662;2023-02-28T17:05:36;7.50;;;3.53;;
64932;SDS011;51446;53.850;10.662;2023-02-28T17:08:04;5.32;;;3.60;;
64932;SDS011;51446;53.850;10.662;2023-02-28T17:10:30;4.90;;;3.60;;
64932;SDS011;51446;53.850;10.662;2023-02-28T17:12:55;6.90;;;3.28;;